KCEF/CEF METAR and TAF weather

Enter ICAO airport designator
Station Type Date Time Source
KCEF METAR 2018/10/19 14:56 UTC NOAA

KCEF 191456Z 19007KT 10SM FEW200 09/M01 A3018 RMK AO2A SLP228 T00871011 58016


Station Type Date Time Source
KCEF Decoded METAR 2018/10/19 14:56 UTC NOAA

Chicopee Falls / Westover Air Force Base, MA, United States (KCEF) 42-12N 072-32W 75M
Oct 19, 2018 - 10:56 AM EDT / 2018.10.19 1456 UTC
Wind: from the S (190 degrees) at 8 MPH (7 KT):0
Visibility: 10 mile(s):0
Sky conditions: mostly clear
Temperature: 47.7 F (8.7 C)
Dew Point: 30.0 F (-1.1 C)
Relative Humidity: 50%
Pressure (altimeter): 30.18 in. Hg (1022 hPa)
Pressure tendency: 0.05 inches (1.6 hPa) lower than three hours ago
ob: KCEF 191456Z 19007KT 10SM FEW200 09/M01 A3018 RMK AO2A SLP228 T00871011 58016
cycle: 15

Station Type Date Time Source
KCEF TAF 2018/10/19 10:06 UTC NOAA

TAF TAF KCEF 191000Z 1910/2016 VRB06KT 9999 SKC 510203 QNH3020INS
BECMG 1914/1915 22010G20KT 9999 FEW200 QNH2999INS
BECMG 1920/1921 20006KT 9999 SCT200 WS020/23035KT QNH2993INS
BECMG 2001/2002 VRB06KT 9999 SCT030 BKN150 WS020/23040KT QNH2978INS
BECMG 2006/2007 VRB06KT 9999 VCSH BKN030 OVC130 WS020/24045KT 520809 QNH2973INS
BECMG 2008/2009 21010G18KT 8000 -SHRA BKN015 OVC030 WS020/24040KT 520608 QNH2970INS TX16/1919Z TNM02/1911Z


Example: see airport list